createdAt,value
2019-03-08T00:02:58.889Z,1.90
2019-03-08T00:07:54.724Z,1.20
2019-03-08T00:12:50.393Z,1.40
2019-03-08T00:17:46.518Z,1.50
2019-03-08T00:22:42.737Z,1.27
2019-03-08T00:27:40.033Z,1.30
2019-03-08T00:32:35.725Z,1.30
2019-03-08T00:37:32.281Z,1.50
2019-03-08T00:42:28.494Z,1.30
2019-03-08T00:47:24.183Z,1.30
2019-03-08T00:57:16.164Z,1.40
2019-03-08T01:02:11.935Z,1.37
2019-03-08T01:07:08.172Z,1.90
2019-03-08T01:12:03.970Z,1.50
2019-03-08T01:17:00.138Z,1.53
2019-03-08T01:21:55.828Z,1.43
2019-03-08T01:26:51.822Z,1.53
2019-03-08T01:31:48.296Z,1.50
2019-03-08T01:36:44.431Z,1.53
2019-03-08T01:41:40.110Z,0.87
2019-03-08T01:46:36.213Z,0.80
2019-03-08T01:51:31.884Z,1.10
2019-03-08T01:56:27.923Z,1.00
2019-03-08T02:01:23.879Z,1.27
2019-03-08T02:06:19.916Z,1.17
2019-03-08T02:11:15.699Z,1.33
2019-03-08T02:16:12.009Z,1.03
2019-03-08T02:21:07.781Z,1.30
2019-03-08T02:26:04.239Z,1.30
2019-03-08T02:30:59.934Z,1.00
2019-03-08T02:35:56.359Z,1.10
2019-03-08T02:40:52.335Z,1.00
2019-03-08T02:45:48.189Z,1.30
2019-03-08T02:50:43.968Z,1.10
2019-03-08T02:55:39.972Z,1.27
2019-03-08T03:00:37.551Z,1.00
2019-03-08T03:05:33.477Z,1.33
2019-03-08T03:10:29.682Z,1.00
2019-03-08T03:15:25.919Z,1.13
2019-03-08T03:20:21.609Z,1.10
2019-03-08T03:25:17.457Z,1.20
2019-03-08T03:30:14.440Z,1.20
2019-03-08T03:35:10.550Z,1.40
2019-03-08T03:40:08.787Z,1.00
2019-03-08T03:45:05.929Z,0.90
2019-03-08T03:50:01.821Z,1.37
2019-03-08T03:54:58.127Z,1.20
2019-03-08T03:59:53.815Z,1.33
2019-03-08T04:04:50.231Z,1.30
2019-03-08T04:09:46.095Z,1.40
2019-03-08T04:14:42.066Z,1.00
2019-03-08T04:19:37.737Z,1.13
2019-03-08T04:24:34.143Z,1.23
2019-03-08T04:29:29.831Z,1.20
2019-03-08T04:34:25.951Z,1.20
2019-03-08T04:39:21.645Z,1.23
2019-03-08T04:44:17.851Z,1.10
2019-03-08T04:49:13.532Z,1.07
2019-03-08T04:54:09.419Z,1.10
2019-03-08T04:59:05.409Z,0.90
2019-03-08T05:04:01.276Z,1.10
2019-03-08T05:08:57.320Z,1.20
2019-03-08T05:13:53.751Z,0.90
2019-03-08T05:18:49.533Z,0.80
2019-03-08T05:23:45.472Z,0.70
2019-03-08T05:28:41.898Z,1.00
2019-03-08T05:33:37.793Z,0.93
2019-03-08T05:38:33.463Z,0.87
2019-03-08T05:43:29.529Z,0.80
2019-03-08T05:48:26.456Z,0.90
2019-03-08T05:53:22.499Z,1.13
2019-03-08T05:58:18.265Z,0.93
2019-03-08T06:03:14.217Z,1.33
2019-03-08T06:08:10.577Z,1.00
2019-03-08T06:13:06.793Z,0.87
2019-03-08T06:18:02.675Z,1.13
2019-03-08T06:22:58.538Z,1.40
2019-03-08T06:27:54.322Z,1.10
2019-03-08T06:32:50.452Z,1.13
2019-03-08T06:37:46.250Z,1.30
2019-03-08T06:42:42.133Z,1.33
2019-03-08T06:47:37.804Z,0.83
2019-03-08T06:52:33.760Z,1.20
2019-03-08T06:57:29.543Z,1.30
2019-03-08T07:02:25.497Z,1.40
2019-03-08T07:07:21.602Z,1.30
2019-03-08T07:12:19.113Z,1.27
2019-03-08T07:17:14.872Z,1.83
2019-03-08T07:22:12.542Z,1.30
2019-03-08T07:27:16.503Z,1.20
2019-03-08T07:32:14.343Z,1.10
2019-03-08T07:37:12.513Z,1.50
2019-03-08T07:42:19.116Z,1.40
2019-03-08T07:47:22.867Z,1.30
2019-03-08T07:52:37.333Z,1.40
2019-03-08T07:57:35.003Z,1.13
2019-03-08T08:02:32.982Z,1.10
2019-03-08T08:07:36.764Z,2.00
2019-03-08T08:12:37.715Z,1.40
2019-03-08T08:17:37.156Z,1.40
2019-03-08T08:22:51.347Z,1.20
2019-03-08T08:28:01.361Z,1.63
2019-03-08T08:33:16.721Z,1.67
2019-03-08T08:38:14.794Z,1.50
2019-03-08T08:43:15.238Z,1.27
2019-03-08T08:48:29.346Z,1.50
2019-03-08T08:53:26.980Z,1.27
2019-03-08T08:58:25.334Z,1.30
2019-03-08T09:03:23.278Z,1.47
2019-03-08T09:08:37.807Z,1.07
2019-03-08T09:13:44.917Z,1.50
2019-03-08T09:18:49.237Z,1.30
2019-03-08T09:23:46.805Z,1.30
2019-03-08T09:28:50.467Z,1.30
2019-03-08T09:34:03.493Z,1.00
2019-03-08T09:39:04.217Z,1.13
2019-03-08T09:44:02.067Z,1.20
2019-03-08T09:49:17.776Z,1.73
2019-03-08T09:54:24.573Z,1.20
2019-03-08T09:59:24.769Z,1.30
2019-03-08T10:04:34.363Z,1.13
2019-03-08T10:09:31.936Z,1.00
2019-03-08T10:14:29.685Z,1.77
2019-03-08T10:19:30.754Z,1.40
2019-03-08T10:24:37.198Z,1.37
2019-03-08T10:29:40.790Z,1.70
2019-03-08T10:34:44.461Z,1.37
2019-03-08T10:39:42.029Z,1.30
2019-03-08T10:44:42.430Z,1.80
2019-03-08T10:49:54.733Z,1.73
2019-03-08T10:54:48.538Z,1.57
2019-03-08T10:59:46.109Z,1.87
2019-03-08T11:04:43.917Z,1.80
2019-03-08T11:09:57.435Z,1.30
2019-03-08T11:14:58.048Z,1.80
2019-03-08T11:19:58.963Z,1.33
2019-03-08T11:25:08.544Z,1.30
2019-03-08T11:30:15.803Z,1.20
2019-03-08T11:35:19.654Z,1.03
2019-03-08T11:40:33.737Z,1.73
2019-03-08T11:45:31.345Z,1.43
2019-03-08T11:50:32.227Z,1.63
2019-03-08T11:55:41.823Z,1.20
2019-03-08T12:00:56.268Z,1.40
2019-03-08T12:06:01.072Z,1.20
2019-03-08T12:11:26.445Z,1.70
2019-03-08T12:16:39.316Z,1.40
2019-03-08T12:21:37.737Z,1.33
2019-03-08T12:26:38.843Z,1.70
2019-03-08T12:31:53.450Z,1.37
2019-03-08T12:37:00.528Z,1.30
2019-03-08T12:42:14.807Z,1.50
2019-03-08T12:47:25.096Z,1.07
2019-03-08T12:52:31.769Z,1.27
2019-03-08T12:57:41.748Z,1.10
2019-03-08T13:02:56.299Z,1.13
2019-03-08T13:13:17.300Z,1.40
2019-03-08T13:18:13.408Z,1.10
2019-03-08T13:23:10.217Z,1.03
2019-03-08T13:28:06.095Z,1.37
2019-03-08T13:33:01.789Z,1.10
2019-03-08T13:37:57.846Z,1.20
2019-03-08T13:42:53.778Z,1.30
2019-03-08T13:52:45.125Z,1.10
2019-03-08T13:57:41.186Z,1.20
2019-03-08T14:02:37.323Z,1.40
2019-03-08T14:07:33.093Z,1.60
2019-03-08T14:12:29.814Z,1.27
2019-03-08T14:17:25.517Z,1.60
2019-03-08T14:22:21.750Z,1.80
2019-03-08T14:27:18.163Z,2.00
2019-03-08T14:32:15.482Z,1.40
2019-03-08T14:37:11.381Z,2.03
2019-03-08T14:42:12.006Z,1.50
2019-03-08T14:47:09.607Z,1.63
2019-03-08T14:52:05.705Z,1.90
2019-03-08T14:57:01.383Z,1.07
2019-03-08T15:01:57.519Z,1.27
2019-03-08T15:06:53.221Z,1.40
2019-03-08T15:11:49.295Z,1.10
2019-03-08T15:21:48.298Z,0.80
2019-03-08T15:26:41.419Z,1.20
2019-03-08T15:31:37.901Z,1.20
2019-03-08T15:36:33.911Z,1.13
2019-03-08T15:41:29.996Z,1.30
2019-03-08T15:46:26.844Z,1.60
2019-03-08T15:51:25.214Z,1.37
2019-03-08T15:56:20.715Z,1.80
2019-03-08T16:01:16.601Z,1.73
2019-03-08T16:06:12.631Z,1.57
2019-03-08T16:11:08.518Z,1.53
2019-03-08T16:16:04.299Z,1.80
2019-03-08T16:21:00.171Z,1.90
2019-03-08T16:25:55.851Z,2.17
2019-03-08T16:30:56.485Z,2.10
2019-03-08T16:35:58.021Z,2.40
2019-03-08T16:40:55.855Z,1.93
2019-03-08T16:45:59.647Z,2.23
2019-03-08T16:51:01.387Z,2.47
2019-03-08T16:56:05.249Z,1.90
2019-03-08T17:01:19.560Z,2.97
2019-03-08T17:06:26.645Z,1.97
2019-03-08T17:11:23.402Z,2.17
2019-03-08T17:16:21.274Z,2.30
2019-03-08T17:26:40.805Z,2.30
2019-03-08T17:31:41.442Z,2.40
2019-03-08T17:36:55.862Z,2.50
2019-03-08T17:42:10.371Z,3.33
2019-03-08T17:47:07.982Z,3.40
2019-03-08T17:52:17.408Z,2.20
2019-03-08T17:57:21.251Z,5.83
2019-03-08T18:02:24.927Z,2.33
2019-03-08T18:07:31.517Z,2.30
2019-03-08T18:12:31.991Z,2.90
2019-03-08T18:17:41.860Z,3.30
2019-03-08T18:22:42.563Z,6.10
2019-03-08T18:27:58.327Z,4.03
2019-03-08T18:33:12.817Z,2.57
2019-03-08T18:38:16.606Z,2.50
2019-03-08T18:43:20.421Z,2.60
2019-03-08T18:48:20.941Z,6.60
2019-03-08T18:53:35.225Z,6.40
2019-03-08T18:58:35.697Z,7.10
2019-03-08T19:03:33.765Z,3.33
2019-03-08T19:08:46.626Z,2.50
2019-03-08T19:13:59.525Z,4.07
2019-03-08T19:19:13.696Z,3.63
2019-03-08T19:24:17.771Z,2.83
2019-03-08T19:29:18.259Z,2.97
2019-03-08T19:34:19.291Z,3.00
2019-03-08T19:39:16.861Z,3.50
2019-03-08T19:44:26.742Z,6.70
2019-03-08T19:49:40.861Z,7.43
2019-03-08T19:54:50.666Z,4.00
2019-03-08T19:59:51.008Z,4.87
2019-03-08T20:05:04.903Z,9.77
2019-03-08T20:10:02.499Z,5.60
2019-03-08T20:15:00.335Z,2.70
2019-03-08T20:19:58.202Z,2.27
2019-03-08T20:24:55.999Z,2.30
2019-03-08T20:29:56.747Z,2.30
2019-03-08T20:34:55.705Z,2.43
2019-03-08T20:40:04.669Z,2.17
2019-03-08T20:45:04.930Z,3.20
2019-03-08T20:50:01.200Z,2.43
2019-03-08T20:54:56.910Z,3.10
2019-03-08T20:59:53.021Z,3.50
2019-03-08T21:04:48.829Z,3.10
2019-03-08T21:09:44.845Z,3.53
2019-03-08T21:14:40.754Z,3.10
2019-03-08T21:19:36.658Z,4.43
2019-03-08T21:24:32.440Z,4.00
2019-03-08T21:29:28.303Z,4.20
2019-03-08T21:34:24.059Z,3.50
2019-03-08T21:39:21.159Z,2.40
2019-03-08T21:44:17.051Z,2.50
2019-03-08T21:49:12.908Z,2.53
2019-03-08T21:54:08.591Z,2.40
2019-03-08T21:59:04.746Z,2.40
2019-03-08T22:04:02.630Z,3.87
2019-03-08T22:09:03.617Z,3.13
2019-03-08T22:13:59.613Z,3.00
2019-03-08T22:18:55.546Z,3.10
2019-03-08T22:23:51.227Z,2.97
2019-03-08T22:28:47.078Z,3.53
2019-03-08T22:33:42.759Z,3.07
2019-03-08T22:38:39.076Z,2.73
2019-03-08T22:43:34.757Z,3.03
2019-03-08T22:48:30.888Z,3.63
2019-03-08T22:53:26.672Z,4.10
2019-03-08T22:58:22.667Z,4.90
2019-03-08T23:03:18.591Z,3.10
2019-03-08T23:08:14.571Z,3.30
2019-03-08T23:13:10.723Z,3.40
2019-03-08T23:18:06.455Z,3.10
2019-03-08T23:23:02.689Z,3.30
2019-03-08T23:28:17.660Z,2.80
2019-03-08T23:33:13.361Z,3.07
2019-03-08T23:38:09.486Z,2.93
2019-03-08T23:43:05.183Z,3.20
2019-03-08T23:48:01.056Z,3.07
2019-03-08T23:52:56.726Z,3.30
2019-03-08T23:57:52.927Z,2.93
